Time;durP1;ratioP1;P1;durP2;ratioP2;P2;SDS_P1;SDS_P2;PMS_P1;PMS_P2;Temp;Humidity;BMP_temperature;BMP_pressure;BME280_temperature;BME280_humidity;BME280_pressure;Samples;Min_cycle;Max_cycle;Signal;HPM_P1;HPM_P2
2022/03/09 00:01:38;;;;;;;0.00;0.00;;;;;;;9.10;64.29;99888.84;7341902;19;20006;-58
2022/03/09 00:04:04;;;;;;;0.00;0.00;;;;;;;9.13;64.43;99885.31;7340801;19;20007;-59
2022/03/09 00:06:30;;;;;;;0.00;0.00;;;;;;;9.19;63.66;99892.06;7354150;19;20010;-59
2022/03/09 00:08:56;;;;;;;0.00;0.00;;;;;;;9.19;63.92;99885.09;7355643;19;20019;-58
2022/03/09 00:11:21;;;;;;;0.00;0.00;;;;;;;9.23;63.79;99884.13;7360603;19;20043;-59
2022/03/09 00:13:47;;;;;;;0.00;0.00;;;;;;;9.25;63.42;99877.09;7361738;19;20058;-58
2022/03/09 00:16:12;;;;;;;0.00;0.00;;;;;;;9.30;63.29;99882.19;7353393;19;20027;-59
2022/03/09 00:18:38;;;;;;;0.00;0.00;;;;;;;9.34;63.69;99875.97;7352486;19;20766;-59
2022/03/09 00:21:03;;;;;;;0.00;0.00;;;;;;;9.35;63.52;99875.06;7349178;19;20021;-59
2022/03/09 00:23:29;;;;;;;0.00;0.00;;;;;;;9.38;63.31;99867.16;7350087;19;20947;-59
2022/03/09 00:25:55;;;;;;;0.00;0.00;;;;;;;9.40;63.07;99873.19;7353971;19;20024;-59
2022/03/09 00:28:20;;;;;;;0.00;0.00;;;;;;;9.45;62.94;99889.53;7349217;19;20022;-59
2022/03/09 00:30:45;;;;;;;0.00;0.00;;;;;;;9.46;62.56;99883.41;7351019;19;20022;-59
2022/03/09 00:33:11;;;;;;;0.08;0.08;;;;;;;9.41;62.50;99863.59;7352179;19;20015;-59
2022/03/09 00:35:38;;;;;;;0.00;0.00;;;;;;;9.53;62.28;99892.75;7333350;19;20018;-60
2022/03/09 00:38:04;;;;;;;0.00;0.00;;;;;;;9.47;62.12;99881.66;7352855;19;20911;-59
2022/03/09 00:40:30;;;;;;;0.00;0.00;;;;;;;9.59;62.39;99882.13;7348291;19;20035;-59
2022/03/09 00:42:56;;;;;;;0.00;0.00;;;;;;;9.62;61.94;99891.59;7340936;19;20886;-59
2022/03/09 00:45:21;;;;;;;0.00;0.00;;;;;;;9.62;61.98;99876.78;7350245;19;20018;-60
2022/03/09 00:47:47;;;;;;;0.00;0.00;;;;;;;9.66;61.72;99884.53;7343854;19;20035;-59
2022/03/09 00:50:12;;;;;;;0.00;0.00;;;;;;;9.67;61.83;99875.81;7350389;19;20014;-59
2022/03/09 00:52:38;;;;;;;0.00;0.00;;;;;;;9.67;62.08;99867.97;7357648;19;20039;-59
2022/03/09 00:55:05;;;;;;;0.00;0.00;;;;;;;9.70;61.81;99873.09;7362791;19;20010;-58
2022/03/09 00:57:31;;;;;;;0.00;0.00;;;;;;;9.69;61.82;99867.03;7366219;19;20475;-59
2022/03/09 00:59:56;;;;;;;0.00;0.00;;;;;;;9.67;61.53;99857.56;7365480;19;20035;-59
2022/03/09 01:02:22;;;;;;;0.00;0.00;;;;;;;9.75;61.77;99873.81;7369114;19;20006;-58
2022/03/09 01:04:47;;;;;;;0.00;0.00;;;;;;;9.77;61.43;99882.44;7360930;19;20010;-58
2022/03/09 01:07:12;;;;;;;0.00;0.00;;;;;;;9.82;61.63;99889.19;7352797;19;20369;-58
2022/03/09 01:09:38;;;;;;;0.00;0.00;;;;;;;9.85;61.63;99876.06;7355706;19;20025;-59
2022/03/09 01:12:04;;;;;;;0.00;0.00;;;;;;;9.88;61.38;99867.28;7356818;19;20015;-59
2022/03/09 01:14:29;;;;;;;0.00;0.00;;;;;;;9.88;60.96;99856.84;7356928;19;20011;-59
2022/03/09 01:16:55;;;;;;;0.00;0.00;;;;;;;9.95;61.24;99847.09;7350514;19;20014;-59
2022/03/09 01:19:20;;;;;;;0.00;0.00;;;;;;;9.98;60.90;99839.13;7353489;19;20003;-59
2022/03/09 01:21:46;;;;;;;0.00;0.00;;;;;;;10.00;60.93;99838.19;7357085;19;20026;-59
2022/03/09 01:24:12;;;;;;;0.00;0.00;;;;;;;9.95;61.24;99832.28;7350544;19;20015;-59
2022/03/09 01:26:37;;;;;;;0.00;0.00;;;;;;;9.99;60.54;99828.66;7354622;19;20014;-59
2022/03/09 01:29:03;;;;;;;0.00;0.00;;;;;;;10.07;61.00;99844.88;7353654;19;20880;-59
2022/03/09 01:31:29;;;;;;;0.00;0.00;;;;;;;10.10;60.39;99836.13;7354306;19;20022;-59
2022/03/09 01:33:54;;;;;;;0.00;0.00;;;;;;;10.13;60.46;99833.38;7358938;19;20015;-59
2022/03/09 01:36:20;;;;;;;0.00;0.00;;;;;;;10.14;60.32;99829.91;7348988;19;20011;-59
2022/03/09 01:38:45;;;;;;;0.05;0.05;;;;;;;10.12;60.10;99818.66;7356061;19;20018;-59
2022/03/09 01:41:11;;;;;;;0.00;0.00;;;;;;;10.22;60.19;99829.63;7366240;19;20098;-58
2022/03/09 01:43:38;;;;;;;0.00;0.00;;;;;;;10.21;60.13;99823.56;7363824;19;20014;-59
2022/03/09 01:46:04;;;;;;;0.00;0.00;;;;;;;10.22;59.82;99811.34;7357013;19;20034;-58
2022/03/09 01:48:29;;;;;;;0.00;0.00;;;;;;;10.14;59.65;99807.28;7364504;19;20018;-59
2022/03/09 01:50:54;;;;;;;0.00;0.00;;;;;;;10.22;59.94;99804.38;7362459;19;20017;-59
2022/03/09 01:53:20;;;;;;;0.00;0.00;;;;;;;10.07;60.27;99792.72;7357622;19;20021;-59
2022/03/09 01:55:46;;;;;;;0.00;0.00;;;;;;;10.22;60.05;99799.16;7362125;19;20006;-58
2022/03/09 01:58:12;;;;;;;0.00;0.00;;;;;;;10.20;59.74;99787.09;7347695;19;20038;-59
2022/03/09 02:00:37;;;;;;;0.00;0.00;;;;;;;10.25;59.45;99790.41;7356110;19;20020;-59
2022/03/09 02:03:03;;;;;;;0.00;0.00;;;;;;;10.26;59.48;99776.47;7342849;19;20014;-59
2022/03/09 02:05:29;;;;;;;0.00;0.00;;;;;;;10.17;60.07;99745.44;7348759;19;20014;-59
2022/03/09 02:10:39;;;;;;;0.08;0.08;;;;;;;10.27;59.71;99749.44;7343932;19;20150;-59
2022/03/09 02:13:07;;;;;;;0.00;0.00;;;;;;;10.27;60.13;99746.84;7353361;19;20041;-59
2022/03/09 02:15:32;;;;;;;0.00;0.00;;;;;;;10.25;59.95;99746.91;7352457;19;20738;-58
2022/03/09 02:17:59;;;;;;;0.00;0.00;;;;;;;10.24;60.46;99737.38;7345655;19;20014;-59
2022/03/09 02:20:25;;;;;;;0.00;0.00;;;;;;;10.24;60.45;99752.16;7355550;19;20009;-59
2022/03/09 02:22:53;;;;;;;0.00;0.00;;;;;;;10.13;60.64;99722.06;7355324;19;20463;-59
2022/03/09 02:25:19;;;;;;;0.00;0.00;;;;;;;10.21;60.73;99734.00;7353301;19;20473;-59
2022/03/09 02:27:45;;;;;;;0.00;0.00;;;;;;;10.08;60.78;99707.50;7347016;19;20023;-59
2022/03/09 02:30:16;;;;;;;0.00;0.00;;;;;;;10.17;60.51;99721.97;7351075;19;20002;-59
2022/03/09 02:32:48;;;;;;;0.00;0.00;;;;;;;10.15;60.75;99719.41;7353465;19;20674;-59
2022/03/09 02:35:15;;;;;;;0.00;0.00;;;;;;;10.09;60.80;99714.44;7349357;19;20010;-59
2022/03/09 02:37:41;;;;;;;0.00;0.00;;;;;;;10.09;60.95;99725.72;7347119;19;20021;-59
2022/03/09 02:40:09;;;;;;;0.00;0.00;;;;;;;10.05;60.75;99718.91;7349229;19;20011;-58
2022/03/09 02:42:35;;;;;;;0.00;0.00;;;;;;;9.92;61.06;99706.34;7349171;19;20598;-59
2022/03/09 02:45:00;;;;;;;0.00;0.00;;;;;;;10.04;60.99;99727.63;7350720;19;20077;-59
2022/03/09 02:47:26;;;;;;;0.00;0.00;;;;;;;10.02;61.08;99713.78;7198808;19;2938579;-58
2022/03/09 02:49:51;;;;;;;0.00;0.00;;;;;;;10.06;60.89;99712.78;7355462;19;20030;-59
2022/03/09 02:52:17;;;;;;;0.00;0.00;;;;;;;10.05;61.23;99692.81;7349182;19;20009;-59
2022/03/09 02:54:43;;;;;;;0.00;0.00;;;;;;;10.03;61.38;99699.81;7307654;19;35155;-59
2022/03/09 02:57:08;;;;;;;0.00;0.00;;;;;;;9.98;61.09;99691.31;1107334;19;10001898;-59
2022/03/09 02:59:35;;;;;;;0.00;0.00;;;;;;;10.10;60.84;99696.09;7349176;19;20007;-59
2022/03/09 03:02:01;;;;;;;0.00;0.00;;;;;;;10.11;60.95;99682.16;7355639;19;20066;-59
2022/03/09 03:04:26;;;;;;;0.00;0.00;;;;;;;10.12;61.09;99689.06;7355209;19;20070;-59
2022/03/09 03:06:52;;;;;;;0.00;0.00;;;;;;;10.13;60.89;99682.94;7349778;19;20098;-58
2022/03/09 03:09:17;;;;;;;0.00;0.00;;;;;;;10.14;60.89;99682.06;7352129;19;20010;-58
2022/03/09 03:11:42;;;;;;;0.00;0.00;;;;;;;10.12;60.77;99673.41;7345670;19;20026;-59
2022/03/09 03:14:08;;;;;;;0.00;0.00;;;;;;;10.20;60.98;99690.56;7352854;19;20034;-59
2022/03/09 03:16:34;;;;;;;0.00;0.00;;;;;;;10.22;60.91;99678.28;7347694;19;20018;-59
2022/03/09 03:18:59;;;;;;;0.00;0.00;;;;;;;10.25;61.11;99684.28;7354586;19;20013;-59
2022/03/09 03:21:25;;;;;;;0.00;0.00;;;;;;;10.21;60.71;99666.16;7355075;19;20042;-59
2022/03/09 03:23:50;;;;;;;0.00;0.00;;;;;;;10.29;60.93;99659.78;7354985;19;20018;-58
2022/03/09 03:26:16;;;;;;;0.00;0.00;;;;;;;10.37;60.67;99680.34;7364856;19;20034;-59
2022/03/09 03:28:41;;;;;;;0.00;0.00;;;;;;;10.41;60.86;99668.88;7359227;19;20066;-60
2022/03/09 03:31:07;;;;;;;0.00;0.00;;;;;;;10.45;61.07;99649.59;7351532;19;20073;-58
2022/03/09 03:33:32;;;;;;;0.00;0.00;;;;;;;10.42;60.76;99636.66;7363097;19;20022;-58
2022/03/09 03:35:58;;;;;;;0.00;0.00;;;;;;;10.48;60.86;99643.41;7354870;19;20042;-59
2022/03/09 03:38:23;;;;;;;0.00;0.00;;;;;;;10.63;60.68;99653.22;7347956;19;20018;-59
2022/03/09 03:40:49;;;;;;;0.00;0.00;;;;;;;10.64;60.53;99640.13;7354159;19;20031;-59
2022/03/09 03:43:14;;;;;;;0.00;0.00;;;;;;;10.67;60.59;99648.75;7344853;19;20015;-59
2022/03/09 03:45:40;;;;;;;0.00;0.00;;;;;;;10.68;60.62;99645.22;7348269;19;20039;-58
2022/03/09 03:48:06;;;;;;;0.00;0.00;;;;;;;10.64;60.74;99640.13;7350500;19;20499;-59
2022/03/09 03:50:32;;;;;;;0.00;0.00;;;;;;;10.70;60.59;99643.41;7350437;19;20446;-59
2022/03/09 03:52:57;;;;;;;0.00;0.00;;;;;;;10.72;60.29;99639.81;7348935;19;20099;-59
2022/03/09 03:55:23;;;;;;;0.00;0.00;;;;;;;10.74;60.28;99635.38;7344865;19;20018;-59
2022/03/09 03:57:48;;;;;;;0.00;0.00;;;;;;;10.75;60.61;99631.88;7348949;19;20031;-59
2022/03/09 04:00:14;;;;;;;0.10;0.10;;;;;;;10.77;60.61;99635.25;7353671;19;20017;-58
2022/03/09 04:02:40;;;;;;;0.00;0.00;;;;;;;10.77;60.72;99634.41;7353312;19;20006;-58
2022/03/09 04:05:06;;;;;;;0.00;0.00;;;;;;;10.80;60.70;99649.97;7350914;19;20031;-59
2022/03/09 04:07:32;;;;;;;0.10;0.10;;;;;;;10.79;60.43;99606.47;7351701;19;20418;-58
2022/03/09 04:09:58;;;;;;;0.00;0.00;;;;;;;10.81;60.48;99610.72;7349619;19;20010;-59
2022/03/09 04:12:24;;;;;;;0.00;0.00;;;;;;;10.82;60.15;99601.13;7355984;19;20077;-59
2022/03/09 04:14:51;;;;;;;0.00;0.00;;;;;;;10.72;60.01;99589.34;7351387;19;20077;-59
2022/03/09 04:17:16;;;;;;;0.00;0.00;;;;;;;10.81;60.37;99594.22;7358112;19;20039;-59
2022/03/09 04:19:41;;;;;;;0.00;0.00;;;;;;;10.79;60.47;99596.00;7352984;19;20016;-58
2022/03/09 04:22:07;;;;;;;0.00;0.00;;;;;;;10.78;60.45;99595.16;7348557;19;20014;-59
2022/03/09 04:24:32;;;;;;;0.00;0.00;;;;;;;10.80;60.53;99602.97;7360151;19;20042;-58
2022/03/09 04:26:58;;;;;;;0.00;0.00;;;;;;;10.70;60.26;99588.59;7352481;19;20693;-59
2022/03/09 04:29:23;;;;;;;0.00;0.00;;;;;;;10.79;60.50;99601.25;7342274;19;20011;-59
2022/03/09 04:31:49;;;;;;;0.00;0.00;;;;;;;10.79;60.52;99598.63;7357539;19;20038;-59
2022/03/09 04:34:14;;;;;;;0.00;0.00;;;;;;;10.70;60.36;99580.75;7336940;19;20018;-59
2022/03/09 04:36:39;;;;;;;0.00;0.00;;;;;;;10.78;60.48;99586.50;7343599;19;20030;-58
2022/03/09 04:39:05;;;;;;;0.00;0.00;;;;;;;10.82;59.93;99585.47;7356659;19;20673;-59
2022/03/09 04:41:31;;;;;;;0.00;0.00;;;;;;;10.78;60.15;99584.72;7358590;19;20070;-58
2022/03/09 04:43:57;;;;;;;0.00;0.00;;;;;;;10.82;60.67;99601.97;7352120;19;20856;-59
2022/03/09 04:46:22;;;;;;;0.00;0.00;;;;;;;10.82;60.60;99598.50;7358218;19;20014;-58
2022/03/09 04:48:49;;;;;;;0.00;0.00;;;;;;;10.83;60.29;99618.50;7356825;19;20689;-59
2022/03/09 04:51:15;;;;;;;0.00;0.00;;;;;;;10.80;61.07;99602.97;7359273;19;20117;-59
2022/03/09 04:53:40;;;;;;;0.00;0.00;;;;;;;10.78;61.36;99610.84;7360205;19;20066;-59
2022/03/09 04:56:06;;;;;;;0.00;0.00;;;;;;;10.78;61.02;99610.00;7346356;19;20074;-59
2022/03/09 04:58:32;;;;;;;0.00;0.00;;;;;;;10.83;61.16;99636.78;7357811;19;20113;-59
2022/03/09 05:00:57;;;;;;;0.00;0.00;;;;;;;10.81;61.20;99615.94;7361482;19;20581;-59
2022/03/09 05:03:23;;;;;;;0.00;0.00;;;;;;;10.71;60.89;99596.34;7352894;19;20036;-59
2022/03/09 05:05:48;;;;;;;0.00;0.00;;;;;;;10.82;60.88;99612.41;7358425;19;20007;-59
2022/03/09 05:08:14;;;;;;;0.00;0.00;;;;;;;10.84;61.02;99607.13;7351179;19;20015;-59
2022/03/09 05:10:39;;;;;;;0.00;0.00;;;;;;;10.85;60.74;99601.84;7354869;19;20420;-59
2022/03/09 05:13:05;;;;;;;0.00;0.00;;;;;;;10.90;61.18;99617.34;7358061;19;20030;-59
2022/03/09 05:15:31;;;;;;;0.00;0.00;;;;;;;10.87;61.23;99599.16;7357634;19;20037;-58
2022/03/09 05:17:57;;;;;;;0.00;0.00;;;;;;;10.92;61.02;99607.66;7352976;19;20062;-60
2022/03/09 05:20:23;;;;;;;0.00;0.00;;;;;;;10.93;61.20;99598.06;7359747;19;20858;-58
2022/03/09 05:22:50;;;;;;;0.00;0.00;;;;;;;10.87;60.98;99591.34;7348947;19;20014;-59
2022/03/09 05:25:15;;;;;;;0.08;0.08;;;;;;;10.97;61.32;99600.50;7356366;19;20015;-59
2022/03/09 05:27:41;;;;;;;0.00;0.00;;;;;;;10.98;61.28;99602.19;7356167;19;20021;-59
2022/03/09 05:30:09;;;;;;;0.00;0.00;;;;;;;11.01;61.04;99607.28;7356760;19;20121;-59
2022/03/09 05:32:42;;;;;;;0.00;0.00;;;;;;;11.05;61.83;99598.41;4805290;19;10022164;-59
2022/03/09 05:35:09;;;;;;;0.00;0.00;;;;;;;11.04;61.68;99598.47;4007479;19;10001908;-58
2022/03/09 05:37:44;;;;;;;0.00;0.00;;;;;;;11.09;61.07;99606.94;7358871;19;20011;-59
2022/03/09 05:40:11;;;;;;;0.10;0.10;;;;;;;11.07;61.69;99599.19;7360011;19;21403;-59
2022/03/09 05:42:37;;;;;;;0.00;0.00;;;;;;;11.09;62.13;99613.03;7361530;19;21059;-59
2022/03/09 05:45:03;;;;;;;0.00;0.00;;;;;;;11.11;62.27;99603.38;7361224;19;20010;-58
2022/03/09 05:47:29;;;;;;;0.00;0.00;;;;;;;11.13;62.49;99598.91;7361327;19;20034;-60
2022/03/09 05:49:54;;;;;;;0.00;0.00;;;;;;;11.13;62.16;99596.31;7364317;19;20893;-59
2022/03/09 05:52:20;;;;;;;0.00;0.00;;;;;;;11.14;62.47;99603.22;7363653;19;20022;-59
2022/03/09 05:54:45;;;;;;;0.08;0.08;;;;;;;11.16;62.16;99605.78;7362701;19;20027;-59
2022/03/09 05:57:18;;;;;;;0.10;0.10;;;;;;;11.18;62.56;99620.47;7359961;19;20010;-59
2022/03/09 05:59:44;;;;;;;0.00;0.00;;;;;;;11.19;62.60;99605.66;7360534;19;20828;-58
2022/03/09 06:02:09;;;;;;;0.10;0.10;;;;;;;11.20;62.73;99606.50;7363994;19;20085;-58
2022/03/09 06:04:34;;;;;;;0.00;0.00;;;;;;;11.24;62.55;99613.28;7362632;19;20835;-59
2022/03/09 06:07:03;;;;;;;0.00;0.00;;;;;;;11.25;62.72;99605.38;7363932;19;20030;-59
2022/03/09 06:09:29;;;;;;;0.00;0.00;;;;;;;11.27;62.50;99608.78;7363171;19;20042;-59
2022/03/09 06:11:54;;;;;;;0.00;0.00;;;;;;;11.29;62.68;99616.56;7363730;19;20791;-58
2022/03/09 06:14:19;;;;;;;0.00;0.00;;;;;;;11.30;62.93;99613.03;7366045;19;20014;-59
2022/03/09 06:16:47;;;;;;;0.10;0.10;;;;;;;11.25;63.07;99596.69;7349160;19;20010;-59
2022/03/09 06:19:13;;;;;;;;;;;;;;;11.35;61.94;99604.09;7364140;19;20087;-59
2022/03/09 06:21:38;;;;;;;0.00;0.00;;;;;;;11.30;62.81;99608.63;7363608;19;20706;-58
2022/03/09 06:24:04;;;;;;;0.00;0.00;;;;;;;11.34;63.52;99611.97;7360613;19;20013;-59
2022/03/09 06:26:29;;;;;;;0.00;0.00;;;;;;;11.31;63.15;99599.06;7365186;19;20007;-59
2022/03/09 06:28:55;;;;;;;0.10;0.10;;;;;;;11.31;63.28;99604.28;7356233;19;20686;-59
2022/03/09 06:31:20;;;;;;;0.00;0.00;;;;;;;11.17;63.96;99587.44;7359474;19;20355;-59
2022/03/09 06:33:45;;;;;;;0.00;0.00;;;;;;;11.27;63.89;99605.34;7357788;19;20010;-59
2022/03/09 06:36:11;;;;;;;0.00;0.00;;;;;;;11.29;63.51;99606.09;7359583;19;20610;-59
2022/03/09 06:38:36;;;;;;;0.00;0.00;;;;;;;11.15;64.17;99589.28;7353277;19;20018;-58
2022/03/09 06:41:01;;;;;;;0.00;0.00;;;;;;;11.25;64.12;99612.38;7360901;19;20013;-59
2022/03/09 06:43:27;;;;;;;0.03;0.03;;;;;;;11.24;64.42;99608.06;7361929;19;20749;-58
2022/03/09 06:45:52;;;;;;;0.00;0.00;;;;;;;11.25;64.35;99614.97;7356483;19;20018;-58
2022/03/09 06:48:18;;;;;;;0.00;0.00;;;;;;;11.23;64.99;99609.00;7358075;19;20011;-59
2022/03/09 06:50:43;;;;;;;0.00;0.00;;;;;;;11.22;65.29;99607.28;7356200;19;20066;-59
2022/03/09 06:53:10;;;;;;;0.00;0.00;;;;;;;11.22;65.26;99615.13;7350546;19;20014;-59
2022/03/09 06:55:36;;;;;;;0.00;0.00;;;;;;;11.21;64.89;99613.44;7360451;19;20006;-59
2022/03/09 06:58:02;;;;;;;0.10;0.10;;;;;;;11.22;65.31;99615.13;7359797;19;20010;-59
2022/03/09 07:00:28;;;;;;;0.00;0.00;;;;;;;11.12;65.12;99599.00;7356143;19;20101;-59
2022/03/09 07:02:56;;;;;;;0.10;0.10;;;;;;;11.21;65.33;99614.28;7353660;19;20006;-58
2022/03/09 07:05:21;;;;;;;0.00;0.00;;;;;;;11.18;65.39;99599.56;7358976;19;21039;-59
2022/03/09 07:07:46;;;;;;;0.10;0.10;;;;;;;11.22;66.06;99615.13;7356672;19;20020;-58
2022/03/09 07:10:13;;;;;;;0.00;0.00;;;;;;;11.25;65.39;99620.22;7356092;19;20013;-58
2022/03/09 07:12:40;;;;;;;0.00;0.00;;;;;;;11.25;65.71;99617.59;7358435;19;20070;-59
2022/03/09 07:15:06;;;;;;;;;;;;;;;11.28;64.82;99614.88;7353309;19;20047;-59
2022/03/09 07:17:31;;;;;;;0.00;0.00;;;;;;;11.25;65.78;99614.97;7355290;19;19954;-59
2022/03/09 07:19:57;;;;;;;0.00;0.00;;;;;;;11.25;65.81;99620.22;7344771;19;20010;-57
2022/03/09 07:22:22;;;;;;;0.10;0.10;;;;;;;11.22;66.22;99620.34;7352168;19;20015;-58
2022/03/09 07:24:48;;;;;;;0.00;0.00;;;;;;;11.16;65.78;99611.88;7353545;19;20014;-59
2022/03/09 07:27:13;;;;;;;0.00;0.00;;;;;;;11.20;65.85;99611.72;7350123;19;20023;-59
2022/03/09 07:29:39;;;;;;;0.00;0.00;;;;;;;11.24;66.19;99619.38;7346201;19;20010;-59
2022/03/09 07:32:05;;;;;;;0.00;0.00;;;;;;;11.25;65.81;99615.81;7354224;19;20018;-58
2022/03/09 07:34:31;;;;;;;0.00;0.00;;;;;;;11.29;65.58;99611.31;7355538;19;20010;-59
2022/03/09 07:36:58;;;;;;;0.00;0.00;;;;;;;10.56;66.05;99482.97;7342716;19;20594;-59
2022/03/09 07:39:26;;;;;;;0.00;0.00;;;;;;;11.36;65.54;99597.09;7350364;19;20014;-58
2022/03/09 07:41:53;;;;;;;0.00;0.00;;;;;;;11.42;65.81;99618.59;7330671;19;20003;-59
2022/03/09 07:44:19;;;;;;;0.00;0.00;;;;;;;11.45;65.46;99607.13;7353134;19;20013;-59
2022/03/09 07:46:44;;;;;;;0.00;0.00;;;;;;;11.53;65.28;99623.34;7357943;19;20014;-58
2022/03/09 07:49:10;;;;;;;0.00;0.00;;;;;;;11.58;65.19;99608.31;7360799;19;20462;-59
2022/03/09 07:51:35;;;;;;;0.00;0.00;;;;;;;11.60;65.23;99606.44;7347453;19;20101;-57
2022/03/09 07:54:00;;;;;;;0.00;0.00;;;;;;;11.61;65.16;99608.19;7339996;19;20462;-59
2022/03/09 07:56:26;;;;;;;0.00;0.00;;;;;;;11.65;65.47;99599.25;7337403;19;20014;-59
2022/03/09 07:58:51;;;;;;;0.00;0.00;;;;;;;11.69;65.54;99607.81;7351150;19;20019;-59
2022/03/09 08:01:17;;;;;;;0.00;0.00;;;;;;;11.67;65.18;99602.66;7339837;19;20113;-59
2022/03/09 08:03:42;;;;;;;0.00;0.00;;;;;;;11.69;65.00;99608.66;7320639;19;20030;-59
2022/03/09 08:06:07;;;;;;;0.10;0.10;;;;;;;11.82;64.95;99616.00;7353346;19;20031;-58
2022/03/09 08:08:34;;;;;;;0.00;0.00;;;;;;;11.86;65.25;99607.97;7355504;19;20030;-59
2022/03/09 08:10:59;;;;;;;0.05;0.05;;;;;;;11.90;64.88;99611.25;7349147;19;20861;-58
2022/03/09 08:13:25;;;;;;;0.03;0.03;;;;;;;11.92;64.96;99606.81;7345868;19;20018;-59
2022/03/09 08:15:50;;;;;;;0.00;0.00;;;;;;;11.95;65.04;99617.13;7349129;19;20015;-59
2022/03/09 08:18:16;;;;;;;0.00;0.00;;;;;;;11.98;65.02;99611.78;7352749;19;20488;-59
2022/03/09 08:20:41;;;;;;;0.00;0.00;;;;;;;11.96;65.12;99631.91;7354137;19;20039;-58
2022/03/09 08:23:08;;;;;;;0.00;0.00;;;;;;;12.05;65.30;99635.88;7354703;19;20027;-56
2022/03/09 08:25:34;;;;;;;0.00;0.00;;;;;;;12.05;65.09;99602.72;7352334;19;20011;-58
2022/03/09 08:28:00;;;;;;;0.00;0.00;;;;;;;12.04;65.52;99606.25;7353272;19;20034;-58
2022/03/09 08:30:26;;;;;;;0.00;0.00;;;;;;;12.01;65.66;99595.91;7355679;19;20014;-59
2022/03/09 08:32:52;;;;;;;0.00;0.00;;;;;;;12.14;65.91;99628.47;7353705;19;20015;-59
2022/03/09 08:35:17;;;;;;;0.00;0.00;;;;;;;12.12;65.86;99622.47;7352822;19;21308;-59
2022/03/09 08:37:43;;;;;;;0.00;0.00;;;;;;;12.15;65.86;99630.16;7353007;19;20015;-59
2022/03/09 08:40:09;;;;;;;0.00;0.00;;;;;;;12.15;66.59;99650.25;7352466;19;20014;-59
2022/03/09 08:42:47;;;;;;;0.00;0.00;;;;;;;12.16;66.51;99663.25;2544890;19;10023536;-60
2022/03/09 08:45:13;;;;;;;0.00;0.00;;;;;;;11.95;67.49;99627.59;6541426;19;10000808;-59
2022/03/09 08:47:39;;;;;;;0.00;0.00;;;;;;;12.03;67.75;99642.97;7347934;19;20034;-58
2022/03/09 08:50:05;;;;;;;0.00;0.00;;;;;;;12.00;67.60;99672.72;7348584;19;20014;-58
2022/03/09 08:52:31;;;;;;;0.00;0.00;;;;;;;11.96;68.46;99650.22;7349713;19;20107;-58
2022/03/09 08:54:56;;;;;;;0.00;0.00;;;;;;;11.92;68.57;99638.22;7348306;19;20007;-59
2022/03/09 08:57:22;;;;;;;0.00;0.00;;;;;;;11.89;68.94;99648.81;7351150;19;22057;-59
2022/03/09 08:59:48;;;;;;;0.00;0.00;;;;;;;11.80;69.20;99625.63;7341726;19;20006;-59
2022/03/09 09:02:14;;;;;;;0.00;0.00;;;;;;;11.84;69.36;99637.69;7337712;19;20854;-59
2022/03/09 09:04:40;;;;;;;0.00;0.00;;;;;;;11.86;68.97;99633.25;7325835;19;20034;-59
2022/03/09 09:07:06;;;;;;;0.00;0.00;;;;;;;11.91;69.07;99640.00;7329950;19;20026;-59
2022/03/09 09:09:32;;;;;;;0.00;0.00;;;;;;;11.94;68.77;99641.59;7332311;19;20057;-59
2022/03/09 09:11:59;;;;;;;0.00;0.00;;;;;;;11.95;68.50;99643.28;7342478;19;21636;-60
2022/03/09 09:14:25;;;;;;;0.10;0.10;;;;;;;12.03;67.39;99638.56;7349754;19;20007;-59
2022/03/09 09:16:51;;;;;;;0.10;0.10;;;;;;;12.03;67.94;99646.44;7352344;19;20017;-59
2022/03/09 09:19:16;;;;;;;0.00;0.00;;;;;;;11.96;67.88;99639.75;7359947;19;20638;-59
2022/03/09 09:21:42;;;;;;;0.00;0.00;;;;;;;12.04;68.26;99658.59;7358099;19;20010;-59
2022/03/09 09:24:07;;;;;;;0.00;0.00;;;;;;;12.06;68.45;99656.72;7356633;19;20464;-59
2022/03/09 09:26:33;;;;;;;0.00;0.00;;;;;;;12.08;68.15;99656.69;7361270;19;20082;-59
2022/03/09 09:28:58;;;;;;;0.00;0.00;;;;;;;11.98;68.63;99647.56;7354260;19;20018;-58
2022/03/09 09:31:23;;;;;;;0.00;0.00;;;;;;;12.04;68.78;99658.59;7359732;19;20490;-59
2022/03/09 09:33:49;;;;;;;0.00;0.00;;;;;;;11.99;69.30;99655.31;7349865;19;20021;-59
2022/03/09 09:36:16;;;;;;;0.00;0.00;;;;;;;11.94;69.74;99662.53;7363038;19;20014;-59
2022/03/09 09:38:41;;;;;;;0.00;0.00;;;;;;;11.90;70.36;99666.19;7356982;19;20103;-59
2022/03/09 09:41:10;;;;;;;0.00;0.00;;;;;;;11.86;70.29;99669.88;7359377;19;20011;-57
2022/03/09 09:43:37;;;;;;;0.08;0.08;;;;;;;11.82;71.25;99663.94;7359713;19;20007;-58
2022/03/09 09:46:03;;;;;;;0.00;0.00;;;;;;;11.77;70.72;99665.88;7352899;19;20010;-59
2022/03/09 09:48:28;;;;;;;0.00;0.00;;;;;;;11.72;71.66;99664.38;7362475;19;20074;-58
2022/03/09 09:50:54;;;;;;;0.00;0.00;;;;;;;11.64;71.88;99665.56;7355904;19;20717;-59
2022/03/09 09:53:22;;;;;;;0.00;0.00;;;;;;;11.59;71.89;99662.28;7350006;19;20021;-59
2022/03/09 09:55:47;;;;;;;;;;;;;;;11.56;70.67;99665.06;7359365;19;20017;-58
2022/03/09 09:58:17;;;;;;;0.00;0.00;;;;;;;11.52;72.25;99675.69;7355671;19;19911;-59
2022/03/09 13:38:01;;;;;;;0.00;0.00;;;;;;;8.91;90.60;99907.63;7386397;19;20688;-63
2022/03/09 13:40:28;;;;;;;0.00;0.00;;;;;;;9.29;89.08;99899.56;7388199;19;20046;-63
2022/03/09 13:42:54;;;;;;;0.00;0.00;;;;;;;9.62;87.69;99910.69;7378978;19;20031;-63
2022/03/09 13:45:28;;;;;;;0.00;0.00;;;;;;;9.93;86.39;99912.31;7381526;19;20010;-63
2022/03/09 13:48:04;;;;;;;0.00;0.00;;;;;;;10.08;85.08;99910.94;7389686;19;20749;-64
2022/03/09 13:50:48;;;;;;;0.00;0.00;;;;;;;10.22;83.68;99915.72;7386829;19;20010;-63
2022/03/09 13:53:14;;;;;;;0.00;0.00;;;;;;;10.28;82.93;99919.00;7384161;19;20568;-64
2022/03/09 13:55:47;;;;;;;0.00;0.00;;;;;;;10.34;81.91;99928.38;7384576;19;20078;-64
2022/03/09 13:58:15;;;;;;;0.00;0.00;;;;;;;10.33;81.33;99929.28;7387172;19;20042;-64
2022/03/09 14:00:43;;;;;;;0.00;0.00;;;;;;;10.29;81.01;99936.38;7379142;19;20024;-64
2022/03/09 14:03:20;;;;;;;0.00;0.00;;;;;;;10.30;81.41;99937.22;7387628;19;20922;-63
2022/03/09 14:05:51;;;;;;;0.00;0.00;;;;;;;10.27;81.13;99942.53;7385315;19;20013;-64
2022/03/09 14:08:33;;;;;;;0.00;0.00;;;;;;;10.26;81.32;99948.66;7395163;19;20014;-64
2022/03/09 14:11:08;;;;;;;0.00;0.00;;;;;;;10.24;81.46;99953.06;7388514;19;20010;-64
2022/03/09 14:13:35;;;;;;;0.00;0.00;;;;;;;10.20;81.08;99961.91;7393211;19;20472;-64
2022/03/09 14:16:01;;;;;;;0.05;0.05;;;;;;;10.17;80.79;99964.59;7385627;19;20061;-64
2022/03/09 14:18:26;;;;;;;0.00;0.00;;;;;;;10.12;80.93;99965.59;7400650;19;20022;-64
2022/03/09 14:20:52;;;;;;;0.00;0.00;;;;;;;10.09;80.72;99965.72;7401522;19;20017;-64
2022/03/09 14:23:19;;;;;;;0.00;0.00;;;;;;;10.05;80.82;99969.31;7394780;19;20486;-63
2022/03/09 14:25:45;;;;;;;0.00;0.00;;;;;;;10.02;80.55;99974.63;7400921;19;20006;-64
2022/03/09 14:28:10;;;;;;;0.00;0.00;;;;;;;10.00;80.65;99983.41;7392206;19;20014;-64
2022/03/09 14:30:36;;;;;;;0.00;0.00;;;;;;;9.89;80.64;99986.34;7386106;19;20010;-64
2022/03/09 14:33:01;;;;;;;0.00;0.00;;;;;;;9.96;80.83;99994.84;7390449;19;20018;-64
2022/03/09 14:35:27;;;;;;;0.10;0.10;;;;;;;9.95;80.71;99996.59;7387723;19;20002;-64
2022/03/09 14:37:52;;;;;;;0.10;0.10;;;;;;;9.96;81.07;99994.84;7373849;19;20027;-63
2022/03/09 14:40:26;;;;;;;0.00;0.00;;;;;;;9.99;81.01;100000.81;7348824;19;20010;-64
2022/03/09 14:42:53;;;;;;;0.00;0.00;;;;;;;10.00;81.30;99993.84;7365114;19;20010;-64
2022/03/09 14:45:24;;;;;;;0.00;0.00;;;;;;;10.01;80.68;99995.53;4656847;19;10001855;-65
2022/03/09 14:47:51;;;;;;;0.00;0.00;;;;;;;9.99;81.04;100005.19;4008359;19;10001825;-64
2022/03/09 14:50:16;;;;;;;0.00;0.00;;;;;;;10.00;80.72;100014.72;7361463;19;20014;-64
2022/03/09 14:52:43;;;;;;;0.03;0.03;;;;;;;9.95;80.97;100012.25;7352738;19;20030;-64
2022/03/09 14:55:09;;;;;;;0.10;0.10;;;;;;;9.99;81.04;100008.63;7363013;19;20705;-64
2022/03/09 14:57:37;;;;;;;0.00;0.00;;;;;;;9.95;81.25;100001.81;7359613;19;20513;-65
2022/03/09 15:00:08;;;;;;;0.03;0.03;;;;;;;10.03;80.98;100010.22;7360821;19;20788;-65
2022/03/09 15:02:34;;;;;;;0.10;0.10;;;;;;;10.03;80.94;100017.19;7351150;19;20030;-64
2022/03/09 15:05:00;;;;;;;0.00;0.00;;;;;;;10.01;80.51;100014.66;7359877;19;20014;-64
2022/03/09 15:07:26;;;;;;;0.00;0.00;;;;;;;10.01;80.38;100024.22;7355994;19;20031;-65
2022/03/09 15:09:51;;;;;;;0.00;0.00;;;;;;;10.00;80.30;100027.75;7356413;19;20018;-65